sensor_id;sensor_type;location;lat;lon;timestamp;pressure;altitude;pressure_sealevel;temperature
12918;BMP180;6526;54.312;13.092;2022-07-01T00:02:24;101664.00;;;23.60
12918;BMP180;6526;54.312;13.092;2022-07-01T00:04:51;101661.00;;;23.50
12918;BMP180;6526;54.312;13.092;2022-07-01T00:07:17;101663.00;;;23.70
12918;BMP180;6526;54.312;13.092;2022-07-01T00:09:43;101662.00;;;23.60
12918;BMP180;6526;54.312;13.092;2022-07-01T00:12:09;101664.00;;;23.50
12918;BMP180;6526;54.312;13.092;2022-07-01T00:14:36;101665.00;;;23.50
12918;BMP180;6526;54.312;13.092;2022-07-01T00:17:02;101654.00;;;23.60
12918;BMP180;6526;54.312;13.092;2022-07-01T00:19:28;101652.00;;;23.60
12918;BMP180;6526;54.312;13.092;2022-07-01T00:21:54;101653.00;;;23.60
12918;BMP180;6526;54.312;13.092;2022-07-01T00:24:20;101647.00;;;23.70
12918;BMP180;6526;54.312;13.092;2022-07-01T00:26:46;101644.00;;;23.40
12918;BMP180;6526;54.312;13.092;2022-07-01T00:29:12;101648.00;;;23.60
12918;BMP180;6526;54.312;13.092;2022-07-01T00:31:38;101642.00;;;23.50
12918;BMP180;6526;54.312;13.092;2022-07-01T00:34:04;101645.00;;;23.50
12918;BMP180;6526;54.312;13.092;2022-07-01T00:36:30;101640.00;;;23.50
12918;BMP180;6526;54.312;13.092;2022-07-01T00:38:57;101627.00;;;23.50
12918;BMP180;6526;54.312;13.092;2022-07-01T00:41:23;101614.00;;;23.40
12918;BMP180;6526;54.312;13.092;2022-07-01T00:43:49;101629.00;;;23.50
12918;BMP180;6526;54.312;13.092;2022-07-01T00:46:16;101636.00;;;23.60
12918;BMP180;6526;54.312;13.092;2022-07-01T00:48:42;101639.00;;;23.50
12918;BMP180;6526;54.312;13.092;2022-07-01T00:51:09;101644.00;;;23.30
12918;BMP180;6526;54.312;13.092;2022-07-01T00:53:35;101631.00;;;23.20
12918;BMP180;6526;54.312;13.092;2022-07-01T00:56:02;101635.00;;;23.30
12918;BMP180;6526;54.312;13.092;2022-07-01T00:58:30;101631.00;;;23.20
12918;BMP180;6526;54.312;13.092;2022-07-01T01:00:57;101637.00;;;23.30
12918;BMP180;6526;54.312;13.092;2022-07-01T01:03:25;101629.00;;;23.40
12918;BMP180;6526;54.312;13.092;2022-07-01T01:05:51;101633.00;;;23.50
12918;BMP180;6526;54.312;13.092;2022-07-01T01:08:17;101628.00;;;23.40
12918;BMP180;6526;54.312;13.092;2022-07-01T01:10:44;101622.00;;;23.50
12918;BMP180;6526;54.312;13.092;2022-07-01T01:13:10;101624.00;;;23.40
12918;BMP180;6526;54.312;13.092;2022-07-01T01:15:38;101621.00;;;23.30
12918;BMP180;6526;54.312;13.092;2022-07-01T01:18:04;101627.00;;;23.10
12918;BMP180;6526;54.312;13.092;2022-07-01T01:20:38;101619.00;;;23.20
12918;BMP180;6526;54.312;13.092;2022-07-01T01:23:04;101630.00;;;23.30
12918;BMP180;6526;54.312;13.092;2022-07-01T01:25:34;101625.00;;;23.40
12918;BMP180;6526;54.312;13.092;2022-07-01T01:28:01;101624.00;;;23.40
12918;BMP180;6526;54.312;13.092;2022-07-01T01:30:28;101614.00;;;23.20
12918;BMP180;6526;54.312;13.092;2022-07-01T01:32:54;101605.00;;;23.20
12918;BMP180;6526;54.312;13.092;2022-07-01T01:35:21;101613.00;;;23.10
12918;BMP180;6526;54.312;13.092;2022-07-01T01:37:47;101609.00;;;23.10
12918;BMP180;6526;54.312;13.092;2022-07-01T01:40:14;101602.00;;;23.10
12918;BMP180;6526;54.312;13.092;2022-07-01T01:42:44;101597.00;;;22.90
12918;BMP180;6526;54.312;13.092;2022-07-01T01:45:11;101599.00;;;23.10
12918;BMP180;6526;54.312;13.092;2022-07-01T01:47:37;101588.00;;;23.00
12918;BMP180;6526;54.312;13.092;2022-07-01T01:50:05;101581.00;;;22.90
12918;BMP180;6526;54.312;13.092;2022-07-01T01:52:32;101578.00;;;22.80
12918;BMP180;6526;54.312;13.092;2022-07-01T01:54:58;101586.00;;;22.80
12918;BMP180;6526;54.312;13.092;2022-07-01T01:57:24;101576.00;;;22.70
12918;BMP180;6526;54.312;13.092;2022-07-01T01:59:50;101587.00;;;22.70
12918;BMP180;6526;54.312;13.092;2022-07-01T02:02:16;101596.00;;;22.70
12918;BMP180;6526;54.312;13.092;2022-07-01T02:04:42;101592.00;;;22.60
12918;BMP180;6526;54.312;13.092;2022-07-01T02:07:09;101597.00;;;22.70
12918;BMP180;6526;54.312;13.092;2022-07-01T02:09:35;101606.00;;;22.70
12918;BMP180;6526;54.312;13.092;2022-07-01T02:12:01;101596.00;;;22.70
12918;BMP180;6526;54.312;13.092;2022-07-01T02:14:27;101602.00;;;22.80
12918;BMP180;6526;54.312;13.092;2022-07-01T02:16:53;101603.00;;;22.80
12918;BMP180;6526;54.312;13.092;2022-07-01T02:19:19;101597.00;;;22.70
12918;BMP180;6526;54.312;13.092;2022-07-01T02:21:45;101598.00;;;22.80
12918;BMP180;6526;54.312;13.092;2022-07-01T02:24:11;101605.00;;;22.90
12918;BMP180;6526;54.312;13.092;2022-07-01T02:26:37;101582.00;;;23.00
12918;BMP180;6526;54.312;13.092;2022-07-01T02:29:03;101593.00;;;22.90
12918;BMP180;6526;54.312;13.092;2022-07-01T02:31:30;101598.00;;;22.90
12918;BMP180;6526;54.312;13.092;2022-07-01T02:33:56;101592.00;;;22.80
12918;BMP180;6526;54.312;13.092;2022-07-01T02:36:22;101588.00;;;22.80
12918;BMP180;6526;54.312;13.092;2022-07-01T02:38:48;101599.00;;;22.90
12918;BMP180;6526;54.312;13.092;2022-07-01T02:41:14;101593.00;;;22.80
12918;BMP180;6526;54.312;13.092;2022-07-01T02:43:40;101593.00;;;22.70
12918;BMP180;6526;54.312;13.092;2022-07-01T02:46:06;101594.00;;;22.60
12918;BMP180;6526;54.312;13.092;2022-07-01T02:48:32;101607.00;;;22.60
12918;BMP180;6526;54.312;13.092;2022-07-01T02:50:58;101596.00;;;22.60
12918;BMP180;6526;54.312;13.092;2022-07-01T02:53:24;101600.00;;;22.60
12918;BMP180;6526;54.312;13.092;2022-07-01T02:55:50;101612.00;;;22.50
12918;BMP180;6526;54.312;13.092;2022-07-01T02:58:17;101599.00;;;22.50
12918;BMP180;6526;54.312;13.092;2022-07-01T03:00:43;101599.00;;;22.50
12918;BMP180;6526;54.312;13.092;2022-07-01T03:03:09;101604.00;;;22.60
12918;BMP180;6526;54.312;13.092;2022-07-01T03:05:35;101605.00;;;22.60
12918;BMP180;6526;54.312;13.092;2022-07-01T03:08:01;101594.00;;;22.40
12918;BMP180;6526;54.312;13.092;2022-07-01T03:10:28;101601.00;;;22.40
12918;BMP180;6526;54.312;13.092;2022-07-01T03:12:54;101596.00;;;22.30
12918;BMP180;6526;54.312;13.092;2022-07-01T03:15:21;101598.00;;;22.30
12918;BMP180;6526;54.312;13.092;2022-07-01T03:17:47;101598.00;;;22.30
12918;BMP180;6526;54.312;13.092;2022-07-01T03:20:17;101607.00;;;22.30
12918;BMP180;6526;54.312;13.092;2022-07-01T03:22:45;101612.00;;;22.20
12918;BMP180;6526;54.312;13.092;2022-07-01T03:25:11;101613.00;;;22.20
12918;BMP180;6526;54.312;13.092;2022-07-01T03:27:38;101615.00;;;22.20
12918;BMP180;6526;54.312;13.092;2022-07-01T03:30:06;101617.00;;;22.20
12918;BMP180;6526;54.312;13.092;2022-07-01T03:32:32;101600.00;;;22.20
12918;BMP180;6526;54.312;13.092;2022-07-01T03:34:59;101600.00;;;22.30
12918;BMP180;6526;54.312;13.092;2022-07-01T03:37:25;101600.00;;;22.30
12918;BMP180;6526;54.312;13.092;2022-07-01T03:39:51;101600.00;;;22.40
12918;BMP180;6526;54.312;13.092;2022-07-01T03:42:19;101597.00;;;22.40
12918;BMP180;6526;54.312;13.092;2022-07-01T03:44:45;101591.00;;;22.40
12918;BMP180;6526;54.312;13.092;2022-07-01T03:47:11;101604.00;;;22.50
12918;BMP180;6526;54.312;13.092;2022-07-01T03:49:37;101602.00;;;22.40
12918;BMP180;6526;54.312;13.092;2022-07-01T03:52:05;101603.00;;;22.30
12918;BMP180;6526;54.312;13.092;2022-07-01T03:54:31;101596.00;;;22.40
12918;BMP180;6526;54.312;13.092;2022-07-01T03:57:06;101602.00;;;22.30
12918;BMP180;6526;54.312;13.092;2022-07-01T03:59:34;101600.00;;;22.30
12918;BMP180;6526;54.312;13.092;2022-07-01T04:02:02;101595.00;;;22.40
12918;BMP180;6526;54.312;13.092;2022-07-01T04:04:28;101594.00;;;22.40
12918;BMP180;6526;54.312;13.092;2022-07-01T04:06:59;101584.00;;;22.50
12918;BMP180;6526;54.312;13.092;2022-07-01T04:09:27;101587.00;;;22.40
12918;BMP180;6526;54.312;13.092;2022-07-01T04:11:54;101588.00;;;22.30
12918;BMP180;6526;54.312;13.092;2022-07-01T04:14:20;101593.00;;;22.30
12918;BMP180;6526;54.312;13.092;2022-07-01T04:16:47;101594.00;;;22.40
12918;BMP180;6526;54.312;13.092;2022-07-01T04:19:14;101598.00;;;22.40
12918;BMP180;6526;54.312;13.092;2022-07-01T04:21:40;101593.00;;;22.40
12918;BMP180;6526;54.312;13.092;2022-07-01T04:24:25;101603.00;;;22.30
12918;BMP180;6526;54.312;13.092;2022-07-01T04:26:52;101605.00;;;22.30
12918;BMP180;6526;54.312;13.092;2022-07-01T04:29:19;101612.00;;;22.30
12918;BMP180;6526;54.312;13.092;2022-07-01T04:31:45;101612.00;;;22.30
12918;BMP180;6526;54.312;13.092;2022-07-01T04:34:12;101629.00;;;22.30
12918;BMP180;6526;54.312;13.092;2022-07-01T04:36:38;101632.00;;;22.50
12918;BMP180;6526;54.312;13.092;2022-07-01T04:39:05;101629.00;;;22.40
12918;BMP180;6526;54.312;13.092;2022-07-01T04:41:31;101622.00;;;22.30
12918;BMP180;6526;54.312;13.092;2022-07-01T04:44:17;101630.00;;;22.20
12918;BMP180;6526;54.312;13.092;2022-07-01T04:46:43;101619.00;;;22.30
12918;BMP180;6526;54.312;13.092;2022-07-01T04:49:10;101629.00;;;22.30
12918;BMP180;6526;54.312;13.092;2022-07-01T04:51:36;101613.00;;;22.40
12918;BMP180;6526;54.312;13.092;2022-07-01T04:54:03;101617.00;;;22.40
12918;BMP180;6526;54.312;13.092;2022-07-01T04:56:30;101624.00;;;22.40
12918;BMP180;6526;54.312;13.092;2022-07-01T04:58:57;101626.00;;;22.30
12918;BMP180;6526;54.312;13.092;2022-07-01T05:01:23;101625.00;;;22.30
12918;BMP180;6526;54.312;13.092;2022-07-01T05:03:49;101621.00;;;22.40
12918;BMP180;6526;54.312;13.092;2022-07-01T05:06:16;101628.00;;;22.50
12918;BMP180;6526;54.312;13.092;2022-07-01T05:08:42;101624.00;;;22.60
12918;BMP180;6526;54.312;13.092;2022-07-01T05:11:08;101632.00;;;22.50
12918;BMP180;6526;54.312;13.092;2022-07-01T05:13:34;101623.00;;;22.70
12918;BMP180;6526;54.312;13.092;2022-07-01T05:16:01;101617.00;;;22.80
12918;BMP180;6526;54.312;13.092;2022-07-01T05:18:27;101607.00;;;22.80
12918;BMP180;6526;54.312;13.092;2022-07-01T05:21:11;101591.00;;;22.80
12918;BMP180;6526;54.312;13.092;2022-07-01T05:23:56;101604.00;;;22.70
12918;BMP180;6526;54.312;13.092;2022-07-01T05:26:22;101619.00;;;22.90
12918;BMP180;6526;54.312;13.092;2022-07-01T05:28:54;101617.00;;;23.00
12918;BMP180;6526;54.312;13.092;2022-07-01T05:31:20;101621.00;;;23.10
12918;BMP180;6526;54.312;13.092;2022-07-01T05:33:47;101615.00;;;23.00
12918;BMP180;6526;54.312;13.092;2022-07-01T05:36:13;101630.00;;;22.90
12918;BMP180;6526;54.312;13.092;2022-07-01T05:38:40;101628.00;;;22.90
12918;BMP180;6526;54.312;13.092;2022-07-01T05:41:06;101638.00;;;22.80
12918;BMP180;6526;54.312;13.092;2022-07-01T05:43:33;101636.00;;;22.80
12918;BMP180;6526;54.312;13.092;2022-07-01T05:45:59;101640.00;;;22.80
12918;BMP180;6526;54.312;13.092;2022-07-01T05:48:25;101637.00;;;23.00
12918;BMP180;6526;54.312;13.092;2022-07-01T05:50:52;101636.00;;;23.20
12918;BMP180;6526;54.312;13.092;2022-07-01T05:53:18;101634.00;;;23.30
12918;BMP180;6526;54.312;13.092;2022-07-01T05:55:44;101632.00;;;23.30
12918;BMP180;6526;54.312;13.092;2022-07-01T05:58:11;101633.00;;;23.50
12918;BMP180;6526;54.312;13.092;2022-07-01T06:00:40;101639.00;;;23.60
12918;BMP180;6526;54.312;13.092;2022-07-01T06:03:10;101653.00;;;23.70
12918;BMP180;6526;54.312;13.092;2022-07-01T06:05:37;101649.00;;;23.80
12918;BMP180;6526;54.312;13.092;2022-07-01T06:08:04;101640.00;;;23.90
12918;BMP180;6526;54.312;13.092;2022-07-01T06:10:31;101618.00;;;23.90
12918;BMP180;6526;54.312;13.092;2022-07-01T06:12:58;101637.00;;;23.90
12918;BMP180;6526;54.312;13.092;2022-07-01T06:15:24;101642.00;;;23.90
12918;BMP180;6526;54.312;13.092;2022-07-01T06:17:50;101633.00;;;23.90
12918;BMP180;6526;54.312;13.092;2022-07-01T06:20:17;101623.00;;;23.90
12918;BMP180;6526;54.312;13.092;2022-07-01T06:22:43;101623.00;;;23.80
12918;BMP180;6526;54.312;13.092;2022-07-01T06:25:10;101622.00;;;23.60
12918;BMP180;6526;54.312;13.092;2022-07-01T06:27:40;101620.00;;;23.80
12918;BMP180;6526;54.312;13.092;2022-07-01T06:30:07;101614.00;;;23.80
12918;BMP180;6526;54.312;13.092;2022-07-01T06:32:33;101622.00;;;23.70
12918;BMP180;6526;54.312;13.092;2022-07-01T06:34:59;101626.00;;;23.60
12918;BMP180;6526;54.312;13.092;2022-07-01T06:37:25;101626.00;;;23.70
12918;BMP180;6526;54.312;13.092;2022-07-01T06:39:51;101622.00;;;23.90
12918;BMP180;6526;54.312;13.092;2022-07-01T06:42:17;101621.00;;;23.70
12918;BMP180;6526;54.312;13.092;2022-07-01T06:44:44;101615.00;;;23.80
12918;BMP180;6526;54.312;13.092;2022-07-01T06:47:10;101620.00;;;23.80
12918;BMP180;6526;54.312;13.092;2022-07-01T06:49:36;101614.00;;;23.70
12918;BMP180;6526;54.312;13.092;2022-07-01T06:52:02;101618.00;;;23.80
12918;BMP180;6526;54.312;13.092;2022-07-01T06:54:28;101626.00;;;23.80
12918;BMP180;6526;54.312;13.092;2022-07-01T06:56:54;101609.00;;;23.90
12918;BMP180;6526;54.312;13.092;2022-07-01T06:59:21;101630.00;;;24.00
12918;BMP180;6526;54.312;13.092;2022-07-01T07:01:47;101629.00;;;23.90
12918;BMP180;6526;54.312;13.092;2022-07-01T07:04:15;101627.00;;;24.00
12918;BMP180;6526;54.312;13.092;2022-07-01T07:06:42;101633.00;;;23.80
12918;BMP180;6526;54.312;13.092;2022-07-01T07:09:08;101614.00;;;23.80
12918;BMP180;6526;54.312;13.092;2022-07-01T07:11:34;101627.00;;;23.70
12918;BMP180;6526;54.312;13.092;2022-07-01T07:14:00;101629.00;;;23.70
12918;BMP180;6526;54.312;13.092;2022-07-01T07:16:26;101637.00;;;23.70
12918;BMP180;6526;54.312;13.092;2022-07-01T07:18:53;101625.00;;;23.60
12918;BMP180;6526;54.312;13.092;2022-07-01T07:21:19;101636.00;;;23.40
12918;BMP180;6526;54.312;13.092;2022-07-01T07:23:45;101640.00;;;23.50
12918;BMP180;6526;54.312;13.092;2022-07-01T07:26:12;101640.00;;;23.60
12918;BMP180;6526;54.312;13.092;2022-07-01T07:28:38;101653.00;;;23.60
12918;BMP180;6526;54.312;13.092;2022-07-01T07:31:06;101654.00;;;23.70
12918;BMP180;6526;54.312;13.092;2022-07-01T07:33:32;101655.00;;;23.70
12918;BMP180;6526;54.312;13.092;2022-07-01T07:35:58;101659.00;;;23.80
12918;BMP180;6526;54.312;13.092;2022-07-01T07:38:24;101653.00;;;23.60
12918;BMP180;6526;54.312;13.092;2022-07-01T07:40:51;101673.00;;;23.60
12918;BMP180;6526;54.312;13.092;2022-07-01T07:43:17;101671.00;;;23.90
12918;BMP180;6526;54.312;13.092;2022-07-01T07:45:43;101680.00;;;24.10
12918;BMP180;6526;54.312;13.092;2022-07-01T07:48:09;101666.00;;;24.10
12918;BMP180;6526;54.312;13.092;2022-07-01T07:50:35;101678.00;;;24.30
12918;BMP180;6526;54.312;13.092;2022-07-01T07:53:02;101680.00;;;24.30
12918;BMP180;6526;54.312;13.092;2022-07-01T07:55:28;101681.00;;;24.60
12918;BMP180;6526;54.312;13.092;2022-07-01T07:57:55;101673.00;;;24.60
12918;BMP180;6526;54.312;13.092;2022-07-01T08:00:21;101678.00;;;24.70
12918;BMP180;6526;54.312;13.092;2022-07-01T08:02:47;101676.00;;;25.00
12918;BMP180;6526;54.312;13.092;2022-07-01T08:05:14;101669.00;;;25.00
12918;BMP180;6526;54.312;13.092;2022-07-01T08:07:41;101673.00;;;25.00
12918;BMP180;6526;54.312;13.092;2022-07-01T08:10:10;101672.00;;;24.90
12918;BMP180;6526;54.312;13.092;2022-07-01T08:12:36;101665.00;;;24.90
12918;BMP180;6526;54.312;13.092;2022-07-01T08:15:03;101657.00;;;25.00
12918;BMP180;6526;54.312;13.092;2022-07-01T08:17:29;101657.00;;;25.20
12918;BMP180;6526;54.312;13.092;2022-07-01T08:19:56;101647.00;;;25.30
12918;BMP180;6526;54.312;13.092;2022-07-01T08:22:22;101656.00;;;25.50
12918;BMP180;6526;54.312;13.092;2022-07-01T08:24:49;101647.00;;;25.60
12918;BMP180;6526;54.312;13.092;2022-07-01T08:27:15;101648.00;;;25.70
12918;BMP180;6526;54.312;13.092;2022-07-01T08:29:41;101648.00;;;25.70
12918;BMP180;6526;54.312;13.092;2022-07-01T08:32:07;101659.00;;;25.90
12918;BMP180;6526;54.312;13.092;2022-07-01T08:34:34;101673.00;;;26.00
12918;BMP180;6526;54.312;13.092;2022-07-01T08:37:02;101682.00;;;26.00
12918;BMP180;6526;54.312;13.092;2022-07-01T08:39:29;101682.00;;;26.00
12918;BMP180;6526;54.312;13.092;2022-07-01T08:41:55;101678.00;;;26.00
12918;BMP180;6526;54.312;13.092;2022-07-01T08:44:22;101671.00;;;25.90
12918;BMP180;6526;54.312;13.092;2022-07-01T08:46:48;101683.00;;;25.90
12918;BMP180;6526;54.312;13.092;2022-07-01T08:49:15;101675.00;;;26.00
12918;BMP180;6526;54.312;13.092;2022-07-01T08:51:41;101689.00;;;26.00
12918;BMP180;6526;54.312;13.092;2022-07-01T08:54:07;101684.00;;;26.20
12918;BMP180;6526;54.312;13.092;2022-07-01T08:56:33;101682.00;;;26.10
12918;BMP180;6526;54.312;13.092;2022-07-01T08:59:10;101682.00;;;26.10
12918;BMP180;6526;54.312;13.092;2022-07-01T09:01:37;101677.00;;;26.20
12918;BMP180;6526;54.312;13.092;2022-07-01T09:04:21;101664.00;;;26.30
12918;BMP180;6526;54.312;13.092;2022-07-01T09:06:48;101669.00;;;26.50
12918;BMP180;6526;54.312;13.092;2022-07-01T09:09:22;101666.00;;;26.50
12918;BMP180;6526;54.312;13.092;2022-07-01T09:11:52;101641.00;;;26.50
12918;BMP180;6526;54.312;13.092;2022-07-01T09:14:27;101664.00;;;26.70
12918;BMP180;6526;54.312;13.092;2022-07-01T09:16:58;101683.00;;;26.70
12918;BMP180;6526;54.312;13.092;2022-07-01T09:19:26;101682.00;;;26.60
12918;BMP180;6526;54.312;13.092;2022-07-01T09:21:57;101669.00;;;26.80
12918;BMP180;6526;54.312;13.092;2022-07-01T09:24:36;101678.00;;;26.80
12918;BMP180;6526;54.312;13.092;2022-07-01T09:27:10;101682.00;;;26.90
12918;BMP180;6526;54.312;13.092;2022-07-01T09:29:41;101685.00;;;27.10
12918;BMP180;6526;54.312;13.092;2022-07-01T09:32:09;101687.00;;;27.10
12918;BMP180;6526;54.312;13.092;2022-07-01T09:34:40;101690.00;;;26.90
12918;BMP180;6526;54.312;13.092;2022-07-01T09:37:07;101680.00;;;26.90
12918;BMP180;6526;54.312;13.092;2022-07-01T09:39:47;101691.00;;;27.00
12918;BMP180;6526;54.312;13.092;2022-07-01T09:42:14;101680.00;;;26.90
12918;BMP180;6526;54.312;13.092;2022-07-01T09:45:04;101682.00;;;26.90
12918;BMP180;6526;54.312;13.092;2022-07-01T09:47:38;101687.00;;;26.90
12918;BMP180;6526;54.312;13.092;2022-07-01T09:50:06;101697.00;;;26.70
12918;BMP180;6526;54.312;13.092;2022-07-01T09:52:32;101696.00;;;26.60
12918;BMP180;6526;54.312;13.092;2022-07-01T09:54:59;101696.00;;;26.70
12918;BMP180;6526;54.312;13.092;2022-07-01T09:57:25;101685.00;;;26.70
12918;BMP180;6526;54.312;13.092;2022-07-01T09:59:51;101690.00;;;26.70
12918;BMP180;6526;54.312;13.092;2022-07-01T10:02:19;101689.00;;;26.60
12918;BMP180;6526;54.312;13.092;2022-07-01T10:04:58;101686.00;;;26.80
12918;BMP180;6526;54.312;13.092;2022-07-01T10:07:37;101684.00;;;27.10
12918;BMP180;6526;54.312;13.092;2022-07-01T10:10:32;101677.00;;;27.30
12918;BMP180;6526;54.312;13.092;2022-07-01T10:13:02;101664.00;;;27.50
12918;BMP180;6526;54.312;13.092;2022-07-01T10:15:29;101661.00;;;27.60
12918;BMP180;6526;54.312;13.092;2022-07-01T10:17:55;101662.00;;;27.70
12918;BMP180;6526;54.312;13.092;2022-07-01T10:20:27;101655.00;;;27.90
12918;BMP180;6526;54.312;13.092;2022-07-01T10:23:05;101653.00;;;28.30
12918;BMP180;6526;54.312;13.092;2022-07-01T10:30:56;101657.00;;;29.00
12918;BMP180;6526;54.312;13.092;2022-07-01T10:36:30;101664.00;;;28.50
12918;BMP180;6526;54.312;13.092;2022-07-01T10:44:20;101661.00;;;28.30
12918;BMP180;6526;54.312;13.092;2022-07-01T10:46:52;101655.00;;;28.00
12918;BMP180;6526;54.312;13.092;2022-07-01T10:52:08;101669.00;;;28.10
12918;BMP180;6526;54.312;13.092;2022-07-01T11:05:03;101696.00;;;27.60
12918;BMP180;6526;54.312;13.092;2022-07-01T11:07:32;101692.00;;;27.80
12918;BMP180;6526;54.312;13.092;2022-07-01T11:09:59;101697.00;;;28.00
12918;BMP180;6526;54.312;13.092;2022-07-01T11:12:28;101691.00;;;27.80
12918;BMP180;6526;54.312;13.092;2022-07-01T11:14:56;101690.00;;;27.80
12918;BMP180;6526;54.312;13.092;2022-07-01T11:17:25;101692.00;;;27.90
12918;BMP180;6526;54.312;13.092;2022-07-01T11:19:56;101686.00;;;28.10
12918;BMP180;6526;54.312;13.092;2022-07-01T11:22:26;101685.00;;;28.20
12918;BMP180;6526;54.312;13.092;2022-07-01T11:24:54;101673.00;;;28.40
12918;BMP180;6526;54.312;13.092;2022-07-01T11:27:21;101668.00;;;28.40
12918;BMP180;6526;54.312;13.092;2022-07-01T11:29:51;101677.00;;;28.10
12918;BMP180;6526;54.312;13.092;2022-07-01T11:32:33;101679.00;;;27.90
12918;BMP180;6526;54.312;13.092;2022-07-01T11:35:02;101663.00;;;27.80
12918;BMP180;6526;54.312;13.092;2022-07-01T11:37:31;101669.00;;;27.70
12918;BMP180;6526;54.312;13.092;2022-07-01T11:40:17;101680.00;;;27.60
12918;BMP180;6526;54.312;13.092;2022-07-01T11:42:44;101676.00;;;27.50
12918;BMP180;6526;54.312;13.092;2022-07-01T11:45:23;101666.00;;;27.40
12918;BMP180;6526;54.312;13.092;2022-07-01T11:47:53;101684.00;;;27.20
12918;BMP180;6526;54.312;13.092;2022-07-01T11:50:20;101698.00;;;27.20
12918;BMP180;6526;54.312;13.092;2022-07-01T11:52:46;101698.00;;;27.20
12918;BMP180;6526;54.312;13.092;2022-07-01T11:55:12;101708.00;;;27.20
12918;BMP180;6526;54.312;13.092;2022-07-01T11:57:39;101722.00;;;27.00
12918;BMP180;6526;54.312;13.092;2022-07-01T12:00:12;101732.00;;;26.70
12918;BMP180;6526;54.312;13.092;2022-07-01T12:02:38;101753.00;;;26.60
12918;BMP180;6526;54.312;13.092;2022-07-01T12:05:05;101747.00;;;26.40
12918;BMP180;6526;54.312;13.092;2022-07-01T12:07:32;101727.00;;;26.20
12918;BMP180;6526;54.312;13.092;2022-07-01T12:09:58;101712.00;;;26.10
12918;BMP180;6526;54.312;13.092;2022-07-01T12:12:27;101675.00;;;26.20
12918;BMP180;6526;54.312;13.092;2022-07-01T12:14:58;101718.00;;;26.10
12918;BMP180;6526;54.312;13.092;2022-07-01T12:17:27;101736.00;;;26.10
12918;BMP180;6526;54.312;13.092;2022-07-01T12:19:54;101734.00;;;26.10
12918;BMP180;6526;54.312;13.092;2022-07-01T12:22:25;101728.00;;;26.20
12918;BMP180;6526;54.312;13.092;2022-07-01T12:25:03;101716.00;;;26.10
12918;BMP180;6526;54.312;13.092;2022-07-01T12:27:29;101705.00;;;26.00
12918;BMP180;6526;54.312;13.092;2022-07-01T12:29:58;101715.00;;;26.00
12918;BMP180;6526;54.312;13.092;2022-07-01T12:32:28;101737.00;;;25.90
12918;BMP180;6526;54.312;13.092;2022-07-01T12:34:58;101757.00;;;25.80
12918;BMP180;6526;54.312;13.092;2022-07-01T12:37:31;101792.00;;;25.70
12918;BMP180;6526;54.312;13.092;2022-07-01T12:42:36;101795.00;;;25.60
12918;BMP180;6526;54.312;13.092;2022-07-01T12:45:08;101816.00;;;25.40
12918;BMP180;6526;54.312;13.092;2022-07-01T12:47:39;101835.00;;;25.40
12918;BMP180;6526;54.312;13.092;2022-07-01T12:50:13;101824.00;;;25.20
12918;BMP180;6526;54.312;13.092;2022-07-01T12:52:42;101787.00;;;25.10
12918;BMP180;6526;54.312;13.092;2022-07-01T12:55:21;101753.00;;;25.00
12918;BMP180;6526;54.312;13.092;2022-07-01T12:57:49;101760.00;;;24.70
12918;BMP180;6526;54.312;13.092;2022-07-01T13:00:17;101764.00;;;24.50
12918;BMP180;6526;54.312;13.092;2022-07-01T13:02:44;101753.00;;;24.40
12918;BMP180;6526;54.312;13.092;2022-07-01T13:05:10;101750.00;;;24.20
12918;BMP180;6526;54.312;13.092;2022-07-01T13:07:37;101733.00;;;23.90
12918;BMP180;6526;54.312;13.092;2022-07-01T13:10:03;101727.00;;;23.70
12918;BMP180;6526;54.312;13.092;2022-07-01T13:12:30;101693.00;;;23.60
12918;BMP180;6526;54.312;13.092;2022-07-01T13:14:56;101676.00;;;23.50
12918;BMP180;6526;54.312;13.092;2022-07-01T13:17:24;101659.00;;;23.40
12918;BMP180;6526;54.312;13.092;2022-07-01T13:19:50;101647.00;;;23.30
12918;BMP180;6526;54.312;13.092;2022-07-01T13:22:16;101664.00;;;23.20
12918;BMP180;6526;54.312;13.092;2022-07-01T13:24:42;101667.00;;;23.00
12918;BMP180;6526;54.312;13.092;2022-07-01T13:27:08;101676.00;;;22.90
12918;BMP180;6526;54.312;13.092;2022-07-01T13:29:34;101695.00;;;22.80
12918;BMP180;6526;54.312;13.092;2022-07-01T13:32:00;101706.00;;;22.80
12918;BMP180;6526;54.312;13.092;2022-07-01T13:34:27;101710.00;;;22.80
12918;BMP180;6526;54.312;13.092;2022-07-01T13:36:53;101736.00;;;22.70
12918;BMP180;6526;54.312;13.092;2022-07-01T13:39:19;101765.00;;;22.70
12918;BMP180;6526;54.312;13.092;2022-07-01T13:41:45;101777.00;;;22.70
12918;BMP180;6526;54.312;13.092;2022-07-01T13:44:12;101781.00;;;22.70
12918;BMP180;6526;54.312;13.092;2022-07-01T13:46:38;101809.00;;;22.60
12918;BMP180;6526;54.312;13.092;2022-07-01T13:49:04;101808.00;;;22.70
12918;BMP180;6526;54.312;13.092;2022-07-01T13:51:30;101825.00;;;22.60
12918;BMP180;6526;54.312;13.092;2022-07-01T13:53:57;101819.00;;;22.60
12918;BMP180;6526;54.312;13.092;2022-07-01T13:56:24;101825.00;;;22.70
12918;BMP180;6526;54.312;13.092;2022-07-01T13:58:51;101826.00;;;22.60
12918;BMP180;6526;54.312;13.092;2022-07-01T14:01:18;101842.00;;;22.60
12918;BMP180;6526;54.312;13.092;2022-07-01T14:03:45;101849.00;;;22.40
12918;BMP180;6526;54.312;13.092;2022-07-01T14:06:11;101848.00;;;22.50
12918;BMP180;6526;54.312;13.092;2022-07-01T14:08:37;101854.00;;;22.50
12918;BMP180;6526;54.312;13.092;2022-07-01T14:11:03;101839.00;;;22.50
12918;BMP180;6526;54.312;13.092;2022-07-01T14:13:29;101870.00;;;22.40
12918;BMP180;6526;54.312;13.092;2022-07-01T14:15:56;101869.00;;;22.30
12918;BMP180;6526;54.312;13.092;2022-07-01T14:18:22;101886.00;;;22.20
12918;BMP180;6526;54.312;13.092;2022-07-01T14:20:48;101892.00;;;22.20
12918;BMP180;6526;54.312;13.092;2022-07-01T14:23:14;101889.00;;;22.10
12918;BMP180;6526;54.312;13.092;2022-07-01T14:25:40;101893.00;;;22.10
12918;BMP180;6526;54.312;13.092;2022-07-01T14:28:07;101901.00;;;22.00
12918;BMP180;6526;54.312;13.092;2022-07-01T14:30:34;101899.00;;;22.10